createdAt,value
2022-09-06T00:00:26.544Z,60.85
2022-09-06T00:02:57.593Z,60.96
2022-09-06T00:05:24.567Z,61.25
2022-09-06T00:07:51.652Z,61.13
2022-09-06T00:10:18.448Z,61.21
2022-09-06T00:12:45.853Z,61.09
2022-09-06T00:15:12.904Z,61.61
2022-09-06T00:17:39.753Z,61.71
2022-09-06T00:20:09.299Z,61.49
2022-09-06T00:22:37.620Z,61.83
2022-09-06T00:25:06.477Z,61.67
2022-09-06T00:27:34.941Z,61.18
2022-09-06T00:30:02.053Z,61.25
2022-09-06T00:32:28.820Z,61.10
2022-09-06T00:34:55.657Z,61.72
2022-09-06T00:37:22.644Z,61.75
2022-09-06T00:39:49.516Z,61.94
2022-09-06T00:42:16.333Z,62.06
2022-09-06T00:44:43.413Z,61.79
2022-09-06T00:47:10.536Z,61.86
2022-09-06T00:49:45.040Z,61.96
2022-09-06T00:52:16.825Z,62.28
2022-09-06T00:54:44.441Z,62.11
2022-09-06T00:57:13.314Z,62.09
2022-09-06T00:59:42.655Z,61.87
2022-09-06T01:02:09.956Z,62.03
2022-09-06T01:04:41.847Z,62.09
2022-09-06T01:07:40.115Z,62.48
2022-09-06T01:10:09.927Z,62.83
2022-09-06T01:13:17.628Z,62.54
2022-09-06T01:16:39.916Z,62.71
2022-09-06T01:19:50.440Z,62.77
2022-09-06T01:22:48.012Z,62.31
2022-09-06T01:25:55.616Z,62.10
2022-09-06T01:28:30.176Z,62.20
2022-09-06T01:31:38.083Z,62.03
2022-09-06T01:34:07.695Z,61.28
2022-09-06T01:37:11.133Z,61.31
2022-09-06T01:39:41.691Z,61.06
2022-09-06T01:42:29.810Z,61.01
2022-09-06T01:45:02.782Z,61.23
2022-09-06T01:47:35.668Z,61.42
2022-09-06T01:50:41.625Z,60.92
2022-09-06T01:53:20.533Z,61.07
2022-09-06T01:56:07.655Z,61.29
2022-09-06T01:59:12.917Z,61.13
2022-09-06T02:01:48.627Z,61.24
2022-09-06T02:04:35.965Z,60.91
2022-09-06T02:07:24.825Z,61.04
2022-09-06T02:10:03.011Z,61.28
2022-09-06T02:12:34.072Z,61.50
2022-09-06T02:15:15.958Z,61.37
2022-09-06T02:18:00.419Z,61.10
2022-09-06T02:20:34.580Z,61.33
2022-09-06T02:23:08.377Z,61.36
2022-09-06T02:25:42.490Z,61.36
2022-09-06T02:28:10.892Z,60.97
2022-09-06T02:30:48.534Z,60.87
2022-09-06T02:33:30.692Z,60.84
2022-09-06T02:36:06.440Z,60.23
2022-09-06T02:38:37.773Z,60.71
2022-09-06T02:41:06.356Z,60.45
2022-09-06T02:43:33.498Z,60.41
2022-09-06T02:46:00.386Z,60.30
2022-09-06T02:48:27.476Z,60.25
2022-09-06T02:50:57.520Z,60.04
2022-09-06T02:53:24.335Z,59.98
2022-09-06T02:55:51.523Z,60.00
2022-09-06T02:58:18.369Z,59.83
2022-09-06T03:00:45.195Z,60.18
2022-09-06T03:03:12.413Z,60.37
2022-09-06T03:05:39.398Z,60.36
2022-09-06T03:08:06.318Z,60.58
2022-09-06T03:10:33.546Z,60.58
2022-09-06T03:13:00.444Z,60.79
2022-09-06T03:15:27.271Z,60.55
2022-09-06T03:17:59.463Z,60.88
2022-09-06T03:20:26.757Z,60.99
2022-09-06T03:22:53.569Z,61.20
2022-09-06T03:25:21.778Z,61.34
2022-09-06T03:27:48.601Z,61.50
2022-09-06T03:30:15.511Z,61.18
2022-09-06T03:32:42.674Z,61.56
2022-09-06T03:35:10.214Z,61.31
2022-09-06T03:37:37.478Z,61.23
2022-09-06T03:40:06.301Z,61.24
2022-09-06T03:42:33.231Z,61.52
2022-09-06T03:45:00.123Z,61.28
2022-09-06T03:47:27.138Z,61.25
2022-09-06T03:49:54.029Z,61.33
2022-09-06T03:52:20.805Z,61.43
2022-09-06T03:54:47.825Z,61.69
2022-09-06T03:57:14.691Z,61.79
2022-09-06T03:59:41.558Z,61.95
2022-09-06T04:02:08.682Z,62.24
2022-09-06T04:04:35.458Z,62.28
2022-09-06T04:07:02.208Z,62.23
2022-09-06T04:09:29.281Z,62.58
2022-09-06T04:11:56.090Z,62.57
2022-09-06T04:14:23.065Z,62.21
2022-09-06T04:16:50.800Z,62.21
2022-09-06T04:19:17.617Z,62.55
2022-09-06T04:21:44.490Z,62.74
2022-09-06T04:24:11.527Z,63.15
2022-09-06T04:26:38.633Z,63.18
2022-09-06T04:29:05.651Z,63.42
2022-09-06T04:31:32.807Z,63.01
2022-09-06T04:33:59.665Z,62.73
2022-09-06T04:36:26.612Z,62.78
2022-09-06T04:38:54.733Z,62.80
2022-09-06T04:41:21.959Z,63.20
2022-09-06T04:43:49.443Z,63.45
2022-09-06T04:46:26.954Z,63.74
2022-09-06T04:48:55.996Z,63.59
2022-09-06T04:51:25.165Z,64.07
2022-09-06T04:53:52.646Z,63.86
2022-09-06T04:56:23.004Z,63.96
2022-09-06T04:58:52.302Z,63.75
2022-09-06T05:01:20.551Z,63.81
2022-09-06T05:03:47.736Z,63.80
2022-09-06T05:06:24.812Z,63.57
2022-09-06T05:08:52.458Z,63.52
2022-09-06T05:11:19.897Z,63.66
2022-09-06T05:13:47.647Z,63.62
2022-09-06T05:16:14.897Z,63.52
2022-09-06T05:18:42.068Z,63.45
2022-09-06T05:21:08.928Z,63.52
2022-09-06T05:23:36.649Z,63.42
2022-09-06T05:26:05.080Z,63.00
2022-09-06T05:28:32.188Z,63.22
2022-09-06T05:31:10.992Z,63.42
2022-09-06T05:33:38.459Z,63.20
2022-09-06T05:36:06.575Z,63.28
2022-09-06T05:38:33.909Z,63.40
2022-09-06T05:41:01.031Z,63.29
2022-09-06T05:43:27.837Z,63.27
2022-09-06T05:45:54.776Z,63.24
2022-09-06T05:48:21.913Z,62.43
2022-09-06T05:51:00.086Z,62.73
2022-09-06T05:53:27.031Z,62.41
2022-09-06T05:55:53.821Z,62.28
2022-09-06T05:58:20.586Z,62.37
2022-09-06T06:00:48.049Z,62.07
2022-09-06T06:03:14.938Z,61.91
2022-09-06T06:05:47.655Z,62.40
2022-09-06T06:08:14.874Z,62.63
2022-09-06T06:10:41.722Z,62.67
2022-09-06T06:13:08.606Z,62.53
2022-09-06T06:15:36.172Z,62.51
2022-09-06T06:18:03.016Z,62.79
2022-09-06T06:20:30.137Z,62.58
2022-09-06T06:22:57.360Z,62.40
2022-09-06T06:25:26.245Z,62.00
2022-09-06T06:27:53.199Z,61.32
2022-09-06T06:30:20.652Z,60.60
2022-09-06T06:32:47.444Z,59.96
2022-09-06T06:35:14.477Z,59.96
2022-09-06T06:37:42.417Z,59.62
2022-09-06T06:40:09.962Z,59.42
2022-09-06T06:42:36.869Z,58.92
2022-09-06T06:45:04.353Z,59.19
2022-09-06T06:47:31.404Z,58.94
2022-09-06T06:49:58.281Z,57.94
2022-09-06T06:52:25.687Z,58.15
2022-09-06T06:54:52.567Z,57.59
2022-09-06T06:57:19.394Z,57.64
2022-09-06T06:59:46.482Z,57.64
2022-09-06T07:02:15.864Z,56.93
2022-09-06T07:04:43.304Z,57.24
2022-09-06T07:12:44.749Z,57.11
2022-09-06T07:15:11.661Z,57.35
2022-09-06T07:17:38.645Z,57.99
2022-09-06T07:20:14.293Z,57.13
2022-09-06T07:22:42.763Z,57.08
2022-09-06T07:25:14.389Z,56.15
2022-09-06T07:27:47.534Z,56.33
2022-09-06T07:30:15.723Z,56.27
2022-09-06T07:32:42.708Z,55.77
2022-09-06T07:35:09.779Z,55.97
2022-09-06T07:37:36.878Z,54.92
2022-09-06T07:40:04.834Z,55.32
2022-09-06T07:42:36.174Z,55.63
2022-09-06T07:45:05.439Z,55.85
2022-09-06T07:53:14.994Z,55.82
2022-09-06T07:55:43.142Z,55.27
2022-09-06T07:58:09.943Z,55.04
2022-09-06T08:00:38.468Z,55.26
2022-09-06T08:03:05.606Z,56.07
2022-09-06T08:11:07.677Z,55.66
2022-09-06T08:13:36.433Z,55.13
2022-09-06T08:16:10.355Z,54.96
2022-09-06T08:18:38.370Z,54.12
2022-09-06T08:21:14.233Z,54.53
2022-09-06T08:23:47.649Z,54.68
2022-09-06T08:26:17.118Z,54.06
2022-09-06T08:28:44.718Z,52.82
2022-09-06T08:31:17.247Z,52.68
2022-09-06T08:33:44.627Z,52.56
2022-09-06T08:36:11.934Z,52.83
2022-09-06T08:38:38.748Z,53.17
2022-09-06T08:41:14.339Z,53.53
2022-09-06T08:47:06.553Z,53.54
2022-09-06T08:50:06.588Z,53.59
2022-09-06T08:53:16.619Z,53.09
2022-09-06T08:55:50.277Z,52.60
2022-09-06T08:58:26.661Z,52.75
2022-09-06T09:01:08.162Z,52.48
2022-09-06T09:03:42.582Z,51.76
2022-09-06T09:06:10.579Z,52.34
2022-09-06T09:09:06.422Z,52.11
2022-09-06T09:11:36.162Z,52.33
2022-09-06T09:14:29.222Z,52.68
2022-09-06T09:17:12.241Z,52.29
2022-09-06T09:19:42.159Z,52.79
2022-09-06T09:22:10.689Z,52.60
2022-09-06T09:24:37.543Z,52.91
2022-09-06T09:27:11.257Z,52.09
2022-09-06T09:32:49.537Z,52.19
2022-09-06T09:35:35.177Z,51.38
2022-09-06T09:38:20.941Z,51.01
2022-09-06T09:40:58.684Z,50.55
2022-09-06T09:43:32.246Z,51.21
2022-09-06T09:46:24.838Z,50.83
2022-09-06T09:49:14.629Z,50.66
2022-09-06T09:51:46.712Z,50.40
2022-09-06T09:54:31.702Z,50.56
2022-09-06T09:56:59.361Z,50.01
2022-09-06T09:59:38.143Z,49.99
2022-09-06T10:02:39.398Z,50.19
2022-09-06T10:05:13.127Z,50.03
2022-09-06T10:07:58.714Z,50.40
2022-09-06T10:10:30.666Z,50.40
2022-09-06T10:13:21.444Z,50.39
2022-09-06T10:15:52.152Z,49.83
2022-09-06T10:18:43.823Z,49.71
2022-09-06T10:21:19.800Z,49.69
2022-09-06T10:24:30.177Z,49.73
2022-09-06T10:27:04.338Z,49.48
2022-09-06T10:29:56.180Z,49.58
2022-09-06T10:32:33.583Z,49.29
2022-09-06T10:35:30.946Z,50.03
2022-09-06T10:38:38.649Z,49.96
2022-09-06T10:41:25.754Z,49.66
2022-09-06T10:44:54.714Z,50.23
2022-09-06T10:47:38.334Z,50.00
2022-09-06T10:50:07.072Z,50.23
2022-09-06T10:52:43.727Z,50.92
2022-09-06T10:55:16.633Z,50.15
2022-09-06T11:00:48.597Z,49.75
2022-09-06T11:06:28.718Z,49.81
2022-09-06T11:09:21.074Z,49.01
2022-09-06T11:11:56.692Z,49.75
2022-09-06T11:14:28.897Z,49.17
2022-09-06T11:17:18.915Z,49.17
2022-09-06T11:20:07.954Z,49.71
2022-09-06T11:23:20.747Z,49.88
2022-09-06T11:26:27.777Z,49.88
2022-09-06T11:29:02.978Z,49.56
2022-09-06T11:34:27.476Z,48.76
2022-09-06T11:37:08.593Z,49.17
2022-09-06T11:43:01.129Z,49.67
2022-09-06T11:45:53.050Z,48.60
2022-09-06T11:48:48.696Z,49.18
2022-09-06T11:51:36.789Z,49.05
2022-09-06T11:54:45.020Z,49.17
2022-09-06T11:57:22.932Z,48.19
2022-09-06T12:00:01.028Z,48.55
2022-09-06T12:02:37.815Z,48.53
2022-09-06T12:05:07.418Z,48.85
2022-09-06T12:07:37.729Z,48.18
2022-09-06T12:10:29.527Z,48.50
2022-09-06T12:12:57.940Z,48.39
2022-09-06T12:15:43.376Z,48.21
2022-09-06T12:18:48.931Z,48.55
2022-09-06T12:21:47.743Z,48.79
2022-09-06T12:24:36.520Z,48.90
2022-09-06T12:27:18.622Z,49.13
2022-09-06T12:30:01.005Z,49.22
2022-09-06T12:32:44.012Z,49.18
2022-09-06T12:38:25.962Z,48.14
2022-09-06T12:40:58.429Z,48.64
2022-09-06T12:43:27.072Z,48.85
2022-09-06T12:45:54.236Z,48.13
2022-09-06T12:48:41.179Z,48.61
2022-09-06T12:51:19.532Z,48.88
2022-09-06T12:53:54.959Z,48.53
2022-09-06T12:56:26.792Z,48.69
2022-09-06T12:59:09.658Z,48.88
2022-09-06T13:01:37.935Z,48.40
2022-09-06T13:04:18.664Z,48.12
2022-09-06T13:06:48.221Z,47.72
2022-09-06T13:09:20.891Z,47.73
2022-09-06T13:11:52.481Z,48.70
2022-09-06T13:14:28.240Z,47.86
2022-09-06T13:16:57.231Z,48.08
2022-09-06T13:19:38.049Z,47.73
2022-09-06T13:22:11.228Z,47.88
2022-09-06T13:24:49.072Z,47.21
2022-09-06T13:27:31.276Z,47.05
2022-09-06T13:30:10.460Z,47.24
2022-09-06T13:32:47.786Z,46.60
2022-09-06T13:35:25.799Z,46.18
2022-09-06T13:37:52.862Z,46.97
2022-09-06T13:41:09.823Z,46.44
2022-09-06T13:43:45.157Z,46.35
2022-09-06T13:46:12.263Z,46.03
2022-09-06T13:48:39.862Z,46.08
2022-09-06T13:51:09.884Z,46.41
2022-09-06T13:53:37.111Z,46.61
2022-09-06T13:56:05.140Z,46.33
2022-09-06T13:58:32.013Z,47.30
2022-09-06T14:00:59.251Z,46.42
2022-09-06T14:03:32.895Z,45.92
2022-09-06T14:06:00.906Z,46.45
2022-09-06T14:08:43.656Z,45.86
2022-09-06T14:11:19.518Z,46.58
2022-09-06T14:13:47.901Z,47.45
2022-09-06T14:16:14.845Z,47.37
2022-09-06T14:18:41.880Z,47.37
2022-09-06T14:21:08.982Z,45.76
2022-09-06T14:23:35.881Z,46.44
2022-09-06T14:26:04.871Z,46.05
2022-09-06T14:28:34.047Z,46.11
2022-09-06T14:31:32.685Z,46.17
2022-09-06T14:34:02.521Z,45.89
2022-09-06T14:36:31.987Z,46.04
2022-09-06T14:39:01.073Z,46.39
2022-09-06T14:41:29.340Z,46.51
2022-09-06T14:43:58.480Z,46.02
2022-09-06T14:46:28.308Z,46.16
2022-09-06T14:49:02.777Z,45.79
2022-09-06T14:51:31.163Z,46.27
2022-09-06T14:54:12.967Z,46.62
2022-09-06T14:56:41.902Z,46.65
2022-09-06T14:59:09.285Z,46.52
2022-09-06T15:01:38.770Z,47.23
2022-09-06T15:04:09.909Z,46.59
2022-09-06T15:06:40.728Z,47.25
2022-09-06T15:09:11.190Z,47.41
2022-09-06T15:11:51.759Z,47.02
2022-09-06T15:14:23.315Z,47.02
2022-09-06T15:16:55.944Z,47.22
2022-09-06T15:19:26.822Z,46.72
2022-09-06T15:21:57.317Z,47.11
2022-09-06T15:24:25.292Z,47.00
2022-09-06T15:26:52.530Z,47.76
2022-09-06T15:29:20.412Z,48.62
2022-09-06T15:31:52.707Z,51.00
2022-09-06T15:34:26.007Z,53.19
2022-09-06T15:36:54.516Z,55.49
2022-09-06T15:39:21.488Z,60.91
2022-09-06T15:41:51.625Z,62.00
2022-09-06T15:44:21.646Z,61.94
2022-09-06T15:46:57.694Z,63.79
2022-09-06T15:49:34.238Z,64.83
2022-09-06T15:52:03.508Z,67.08
2022-09-06T15:54:48.991Z,65.92
2022-09-06T15:57:17.407Z,65.96
2022-09-06T15:59:45.056Z,66.83
2022-09-06T16:02:12.974Z,68.79
2022-09-06T16:04:40.081Z,69.45
2022-09-06T16:07:07.495Z,69.86
2022-09-06T16:09:34.701Z,71.11
2022-09-06T16:12:01.652Z,71.26
2022-09-06T16:14:29.002Z,70.87
2022-09-06T16:16:57.401Z,72.02
2022-09-06T16:19:26.075Z,71.90
2022-09-06T16:21:53.661Z,72.13
2022-09-06T16:24:21.467Z,71.94
2022-09-06T16:26:49.695Z,71.29
2022-09-06T16:29:19.217Z,70.26
2022-09-06T16:31:47.132Z,72.39
2022-09-06T16:34:15.173Z,71.71
2022-09-06T16:36:42.570Z,71.97
2022-09-06T16:39:11.100Z,71.33
2022-09-06T16:41:45.815Z,69.22
2022-09-06T16:44:18.113Z,69.87
2022-09-06T16:46:50.334Z,70.54
2022-09-06T16:49:19.319Z,71.26
2022-09-06T16:51:48.614Z,70.34
2022-09-06T16:54:19.032Z,66.12
2022-09-06T16:56:46.283Z,65.09
2022-09-06T16:59:17.556Z,63.59
2022-09-06T17:01:46.185Z,64.05
2022-09-06T17:04:14.596Z,65.70
2022-09-06T17:06:45.610Z,64.91
2022-09-06T17:09:20.240Z,63.55
2022-09-06T17:11:49.930Z,63.63
2022-09-06T17:14:19.027Z,63.39
2022-09-06T17:17:05.064Z,64.14
2022-09-06T17:19:41.618Z,64.97
2022-09-06T17:22:10.837Z,62.85
2022-09-06T17:24:39.231Z,62.49
2022-09-06T17:27:07.382Z,62.98
2022-09-06T17:29:34.870Z,61.83
2022-09-06T17:32:03.951Z,61.37
2022-09-06T17:34:31.276Z,60.27
2022-09-06T17:36:58.255Z,62.73
2022-09-06T17:39:25.733Z,63.26
2022-09-06T17:41:54.393Z,62.17
2022-09-06T17:44:26.179Z,60.61
2022-09-06T17:47:11.893Z,60.58
2022-09-06T17:49:41.197Z,60.80
2022-09-06T17:52:08.399Z,61.88
2022-09-06T17:54:36.271Z,63.09
2022-09-06T17:57:03.891Z,62.47
2022-09-06T17:59:35.440Z,63.20
2022-09-06T18:02:04.868Z,63.20
2022-09-06T18:04:32.649Z,63.28
2022-09-06T18:07:01.773Z,62.87
2022-09-06T18:09:28.929Z,64.00
2022-09-06T18:11:57.193Z,62.02
2022-09-06T18:14:25.564Z,62.95
2022-09-06T18:16:53.017Z,62.98
2022-09-06T18:19:22.281Z,63.00
2022-09-06T18:21:54.393Z,62.37
2022-09-06T18:24:25.272Z,63.19
2022-09-06T18:26:52.609Z,62.95
2022-09-06T18:29:20.921Z,61.78
2022-09-06T18:31:48.616Z,61.73
2022-09-06T18:34:19.976Z,61.83
2022-09-06T18:36:48.719Z,61.64
2022-09-06T18:39:17.686Z,62.12
2022-09-06T18:42:00.629Z,61.74
2022-09-06T18:44:33.781Z,62.29
2022-09-06T18:47:06.293Z,61.95
2022-09-06T18:49:41.802Z,62.87
2022-09-06T18:52:13.783Z,63.05
2022-09-06T18:54:43.786Z,62.63
2022-09-06T18:57:13.225Z,63.16
2022-09-06T18:59:49.434Z,63.16
2022-09-06T19:02:16.811Z,63.67
2022-09-06T19:04:54.133Z,62.92
2022-09-06T19:07:29.703Z,63.59
2022-09-06T19:09:58.588Z,63.84
2022-09-06T19:12:27.762Z,62.84
2022-09-06T19:14:55.114Z,62.97
2022-09-06T19:17:23.251Z,63.68
2022-09-06T19:19:50.434Z,63.07
2022-09-06T19:22:17.935Z,63.24
2022-09-06T19:24:53.424Z,62.74
2022-09-06T19:27:20.595Z,63.31
2022-09-06T19:29:48.179Z,63.67
2022-09-06T19:32:19.338Z,64.04
2022-09-06T19:34:47.723Z,63.36
2022-09-06T19:37:17.383Z,63.22
2022-09-06T19:39:45.576Z,62.97
2022-09-06T19:42:13.008Z,63.12
2022-09-06T19:44:40.264Z,63.11
2022-09-06T19:47:08.142Z,63.63
2022-09-06T19:49:35.459Z,63.67
2022-09-06T19:52:09.649Z,64.11
2022-09-06T19:54:37.971Z,63.77
2022-09-06T19:57:06.263Z,64.30
2022-09-06T19:59:36.395Z,64.25
2022-09-06T20:02:04.995Z,64.06
2022-09-06T20:04:32.511Z,64.40
2022-09-06T20:06:59.418Z,64.26
2022-09-06T20:09:26.767Z,63.86
2022-09-06T20:11:53.714Z,64.16
2022-09-06T20:14:20.848Z,64.41
2022-09-06T20:16:48.005Z,64.16
2022-09-06T20:19:16.439Z,64.37
2022-09-06T20:21:43.401Z,64.42
2022-09-06T20:24:12.536Z,64.77
2022-09-06T20:26:40.358Z,65.25
2022-09-06T20:29:08.197Z,65.22
2022-09-06T20:31:37.312Z,64.94
2022-09-06T20:34:06.604Z,64.95
2022-09-06T20:36:34.134Z,65.24
2022-09-06T20:39:02.229Z,64.89
2022-09-06T20:41:29.469Z,64.81
2022-09-06T20:43:59.044Z,65.02
2022-09-06T20:46:32.821Z,65.30
2022-09-06T20:49:04.478Z,65.46
2022-09-06T20:51:34.763Z,65.90
2022-09-06T20:54:04.325Z,66.55
2022-09-06T20:56:35.015Z,67.72
2022-09-06T20:59:05.763Z,68.16
2022-09-06T21:01:37.217Z,68.46
2022-09-06T21:04:07.674Z,69.46
2022-09-06T21:06:36.875Z,69.65
2022-09-06T21:09:09.640Z,69.56
2022-09-06T21:11:37.512Z,69.97
2022-09-06T21:14:05.619Z,69.77
2022-09-06T21:16:33.267Z,69.90
2022-09-06T21:19:05.274Z,69.96
2022-09-06T21:21:34.835Z,70.19
2022-09-06T21:24:05.137Z,70.32
2022-09-06T21:26:32.308Z,70.40
2022-09-06T21:28:59.247Z,70.96
2022-09-06T21:31:33.720Z,71.18
2022-09-06T21:34:07.460Z,70.91
2022-09-06T21:36:37.685Z,71.36
2022-09-06T21:39:10.151Z,71.37
2022-09-06T21:41:39.979Z,71.40
2022-09-06T21:44:08.552Z,71.52
2022-09-06T21:46:39.182Z,71.34
2022-09-06T21:49:10.997Z,71.43
2022-09-06T21:51:38.742Z,71.42
2022-09-06T21:54:07.073Z,71.86
2022-09-06T21:56:38.141Z,71.67
2022-09-06T21:59:06.221Z,72.27
2022-09-06T22:01:36.387Z,72.58
2022-09-06T22:04:04.899Z,72.80
2022-09-06T22:06:34.454Z,72.84
2022-09-06T22:09:07.929Z,72.83
2022-09-06T22:11:35.244Z,72.59
2022-09-06T22:14:06.488Z,72.76
2022-09-06T22:16:36.164Z,73.09
2022-09-06T22:19:09.191Z,73.30
2022-09-06T22:21:38.644Z,73.77
2022-09-06T22:24:09.842Z,73.89
2022-09-06T22:26:38.723Z,74.72
2022-09-06T22:29:09.106Z,74.81
2022-09-06T22:31:37.046Z,74.83
2022-09-06T22:34:04.903Z,74.82
2022-09-06T22:36:32.870Z,74.75
2022-09-06T22:38:59.932Z,75.39
2022-09-06T22:41:31.745Z,75.21
2022-09-06T22:44:03.487Z,74.81
2022-09-06T22:46:31.571Z,75.09
2022-09-06T22:48:59.184Z,75.10
2022-09-06T22:51:26.214Z,75.59
2022-09-06T22:53:53.314Z,75.60
2022-09-06T22:56:20.366Z,75.80
2022-09-06T22:58:47.418Z,75.35
2022-09-06T23:01:16.487Z,75.89
2022-09-06T23:03:43.933Z,75.44
2022-09-06T23:06:11.390Z,74.66
2022-09-06T23:08:40.701Z,74.69
2022-09-06T23:11:12.363Z,74.52
2022-09-06T23:13:44.091Z,74.57
2022-09-06T23:16:18.489Z,74.23
2022-09-06T23:18:46.524Z,74.09
2022-09-06T23:21:18.119Z,73.69
2022-09-06T23:23:47.185Z,74.02
2022-09-06T23:26:22.361Z,73.93
2022-09-06T23:28:56.786Z,73.81
2022-09-06T23:31:27.963Z,73.49
2022-09-06T23:34:00.971Z,73.93
2022-09-06T23:36:28.742Z,74.18
2022-09-06T23:38:56.917Z,74.51
2022-09-06T23:41:24.868Z,74.51
2022-09-06T23:43:51.909Z,74.14
2022-09-06T23:46:18.929Z,73.98
2022-09-06T23:48:46.095Z,73.97
2022-09-06T23:51:13.932Z,74.00
2022-09-06T23:53:40.993Z,74.45
2022-09-06T23:56:08.239Z,74.88
2022-09-06T23:58:36.687Z,74.69
